Time;durP1;ratioP1;P1;durP2;ratioP2;P2;SDS_P1;SDS_P2;PMS_P1;PMS_P2;Temp;Humidity;BMP_temperature;BMP_pressure;BME280_temperature;BME280_humidity;BME280_pressure;Samples;Min_cycle;Max_cycle;Signal;HPM_P1;HPM_P2
2022/02/23 00:01:42;;;;;;;1999.90;999.90;;;;;;;1.59;57.35;101009.97;5016099;28;97306;-73
2022/02/23 00:04:12;;;;;;;1999.90;999.90;;;;;;;1.59;57.41;101015.22;5020619;27;97287;-73
2022/02/23 00:06:40;;;;;;;1999.90;999.90;;;;;;;1.62;57.36;101028.50;5018113;27;97943;-76
2022/02/23 00:09:08;;;;;;;1999.90;999.90;;;;;;;1.58;57.40;101024.81;5019443;28;97203;-74
2022/02/23 00:11:36;;;;;;;1999.90;999.90;;;;;;;1.55;56.98;101029.88;5021271;27;97001;-75
2022/02/23 00:14:05;;;;;;;1999.90;999.90;;;;;;;1.53;57.12;101041.97;5021031;28;100482;-73
2022/02/23 00:16:33;;;;;;;1999.90;999.90;;;;;;;1.53;57.22;101036.75;5020648;28;98969;-74
2022/02/23 00:19:00;;;;;;;1999.90;999.90;;;;;;;1.52;57.74;101042.81;5022408;28;96840;-75
2022/02/23 00:21:28;;;;;;;1999.90;999.90;;;;;;;1.48;57.55;101047.75;5014409;28;97364;-76
2022/02/23 00:23:56;;;;;;;1999.90;999.90;;;;;;;1.48;57.31;101046.06;5021150;28;98210;-75
2022/02/23 00:26:23;;;;;;;1999.90;999.90;;;;;;;1.44;56.89;101045.75;5020365;28;97688;-74
2022/02/23 00:28:51;;;;;;;1999.90;999.90;;;;;;;1.42;56.96;101064.03;5019749;28;96982;-74
2022/02/23 00:31:22;;;;;;;1999.90;999.90;;;;;;;1.40;57.02;101063.00;5021537;28;96960;-79
2022/02/23 00:33:49;;;;;;;1999.90;999.90;;;;;;;1.40;57.09;101068.25;5020479;28;97779;-76
2022/02/23 00:36:17;;;;;;;1999.90;999.90;;;;;;;1.37;56.92;101078.56;5020830;27;97775;-74
2022/02/23 00:38:47;;;;;;;1999.90;999.90;;;;;;;1.36;57.30;101065.38;5022536;28;97565;-75
2022/02/23 00:41:15;;;;;;;1999.90;999.90;;;;;;;1.34;57.50;101070.53;5023407;27;97809;-76
2022/02/23 00:43:42;;;;;;;1999.90;999.90;;;;;;;1.31;57.19;101066.78;5023114;27;99676;-75
2022/02/23 00:46:10;;;;;;;1999.90;999.90;;;;;;;1.27;57.81;101081.41;5021153;27;98626;-75
2022/02/23 00:48:39;;;;;;;1999.90;999.90;;;;;;;1.23;57.18;101074.19;5025492;27;96907;-76
2022/02/23 00:51:07;;;;;;;1999.90;999.90;;;;;;;1.22;57.84;101095.94;5022456;28;97710;-74
2022/02/23 00:53:35;;;;;;;1999.90;999.90;;;;;;;1.18;57.38;101097.47;5024221;28;97388;-74
2022/02/23 00:56:03;;;;;;;1999.90;999.90;;;;;;;1.15;57.59;101101.59;5020217;28;100550;-74
2022/02/23 00:58:31;;;;;;;1999.90;999.90;;;;;;;1.13;57.52;101106.75;5024451;28;96838;-73
2022/02/23 01:00:59;;;;;;;1999.90;999.90;;;;;;;1.11;58.15;101099.59;5019620;28;96962;-74
2022/02/23 01:03:27;;;;;;;1999.90;999.90;;;;;;;1.08;57.16;101107.28;5023865;27;98667;-73
2022/02/23 01:05:56;;;;;;;1999.90;999.90;;;;;;;1.05;57.88;101114.94;5039505;27;97598;-74
2022/02/23 01:08:24;;;;;;;1999.90;999.90;;;;;;;1.03;57.52;101106.97;5019964;28;97259;-77
2022/02/23 01:10:52;;;;;;;1999.90;999.90;;;;;;;1.04;57.90;101134.06;5023685;28;97292;-73
2022/02/23 01:13:19;;;;;;;1999.90;999.90;;;;;;;1.00;57.47;101132.97;5018252;27;99717;-76
2022/02/23 01:15:47;;;;;;;1999.90;999.90;;;;;;;0.97;57.30;101134.50;5038791;27;99475;-76
2022/02/23 01:18:15;;;;;;;1999.90;999.90;;;;;;;0.99;57.53;101139.03;5021628;27;96924;-73
2022/02/23 01:20:43;;;;;;;1999.90;999.90;;;;;;;0.98;57.47;101134.59;5021740;28;101588;-74
2022/02/23 01:23:12;;;;;;;1999.90;999.90;;;;;;;0.94;57.32;101148.28;5022462;28;98722;-75
2022/02/23 01:25:40;;;;;;;1999.90;999.90;;;;;;;0.92;57.92;101149.91;5019317;28;98639;-74
2022/02/23 01:28:09;;;;;;;1999.90;999.90;;;;;;;0.93;57.53;101162.22;5022516;28;97028;-75
2022/02/23 01:30:38;;;;;;;1999.90;999.90;;;;;;;0.90;57.39;101161.09;5020522;28;97736;-74
2022/02/23 01:33:05;;;;;;;1999.90;999.90;;;;;;;0.91;57.99;101168.16;5022088;27;99648;-77
2022/02/23 01:35:33;;;;;;;1999.90;999.90;;;;;;;0.90;58.15;101174.19;5015748;27;99270;-74
2022/02/23 01:38:03;;;;;;;1999.90;999.90;;;;;;;0.89;58.05;101182.84;5037486;27;97964;-74
2022/02/23 01:40:32;;;;;;;1999.90;999.90;;;;;;;0.88;57.71;101181.06;5023269;28;97757;-73
2022/02/23 01:43:00;;;;;;;1999.90;999.90;;;;;;;0.93;57.75;101179.63;5022314;28;97685;-73
2022/02/23 01:45:28;;;;;;;1999.90;999.90;;;;;;;0.89;58.21;101191.63;5019492;27;100576;-72
2022/02/23 01:47:56;;;;;;;1999.90;999.90;;;;;;;0.89;57.83;101199.47;5021832;27;97651;-74
2022/02/23 01:50:23;;;;;;;1999.90;999.90;;;;;;;0.89;58.09;101202.09;5023607;28;96798;-76
2022/02/23 01:52:51;;;;;;;1999.90;999.90;;;;;;;0.90;58.23;101210.88;5025349;27;98085;-75
2022/02/23 01:55:19;;;;;;;1999.90;999.90;;;;;;;0.92;57.94;101206.66;5025959;28;99144;-75
2022/02/23 01:57:48;;;;;;;1999.90;999.90;;;;;;;0.92;57.79;101222.38;5025901;27;98025;-74
2022/02/23 02:00:17;;;;;;;1999.90;999.90;;;;;;;0.91;58.11;101217.91;5030498;28;97202;-75
2022/02/23 02:02:45;;;;;;;1999.90;999.90;;;;;;;0.96;58.11;101219.13;5023630;27;98600;-74
2022/02/23 02:05:14;;;;;;;1999.90;999.90;;;;;;;0.99;58.01;101224.59;5024795;28;97762;-75
2022/02/23 02:07:41;;;;;;;1999.90;999.90;;;;;;;0.96;57.83;101220.03;5021436;27;96784;-75
2022/02/23 02:10:11;;;;;;;1999.90;999.90;;;;;;;0.96;58.34;101232.22;5023367;27;97061;-74
2022/02/23 02:12:41;;;;;;;1999.90;999.90;;;;;;;1.00;58.46;101231.63;5021391;27;98740;-75
2022/02/23 02:15:10;;;;;;;1999.90;999.90;;;;;;;1.01;57.94;101250.06;5020316;28;97855;-76
2022/02/23 02:17:41;;;;;;;1999.90;999.90;;;;;;;1.04;58.46;101250.28;5021101;27;98284;-75
2022/02/23 02:20:10;;;;;;;1999.90;999.90;;;;;;;1.05;58.30;101248.59;5020467;28;97124;-75
2022/02/23 02:22:39;;;;;;;1999.90;999.90;;;;;;;1.09;57.78;101246.25;5003144;28;101247;-74
2022/02/23 02:25:08;;;;;;;1999.90;999.90;;;;;;;1.08;58.10;101244.47;5021341;27;99538;-76
2022/02/23 02:27:35;;;;;;;1999.90;999.90;;;;;;;1.10;58.23;101249.78;5023285;28;97107;-76
2022/02/23 02:30:03;;;;;;;1999.90;999.90;;;;;;;1.13;57.75;101265.72;5021988;28;97652;-78
2022/02/23 02:32:31;;;;;;;1999.90;999.90;;;;;;;1.15;57.51;101261.47;5019703;28;97462;-76
2022/02/23 02:34:59;;;;;;;1999.90;999.90;;;;;;;1.18;57.66;101274.78;5016862;27;96973;-77
2022/02/23 02:37:27;;;;;;;1999.90;999.90;;;;;;;1.17;57.87;101258.16;5022747;28;97236;-75
2022/02/23 02:39:56;;;;;;;1999.90;999.90;;;;;;;1.16;57.58;101269.44;5019302;28;97323;-71
2022/02/23 02:42:24;;;;;;;1999.90;999.90;;;;;;;1.21;58.00;101259.28;5019203;27;98026;-74
2022/02/23 02:44:52;;;;;;;1999.90;999.90;;;;;;;1.24;57.61;101275.19;5021501;27;97636;-71
2022/02/23 02:47:22;;;;;;;1999.90;999.90;;;;;;;1.26;57.62;101284.06;5022670;28;98301;-73
2022/02/23 02:49:49;;;;;;;1999.90;999.90;;;;;;;1.27;57.59;101295.47;5003443;28;97059;-74
2022/02/23 02:52:18;;;;;;;1999.90;999.90;;;;;;;1.23;57.59;101284.75;5021860;28;97658;-76
2022/02/23 02:54:45;;;;;;;1999.90;999.90;;;;;;;1.24;58.02;101293.53;5017983;28;97599;-73
2022/02/23 02:57:14;;;;;;;1999.90;999.90;;;;;;;1.23;57.84;101299.59;5019435;28;97842;-76
2022/02/23 02:59:42;;;;;;;1999.90;999.90;;;;;;;1.22;57.32;101297.75;5020331;27;96916;-75
2022/02/23 03:02:10;;;;;;;1999.90;999.90;;;;;;;1.25;57.94;101305.84;5016854;27;98667;-73
2022/02/23 03:04:37;;;;;;;1999.90;999.90;;;;;;;1.26;57.60;101311.97;5021740;28;97930;-72
2022/02/23 03:07:05;;;;;;;1999.90;999.90;;;;;;;1.24;57.63;101317.13;5020015;28;97402;-73
2022/02/23 03:09:33;;;;;;;1999.90;999.90;;;;;;;1.26;57.69;101312.91;5019039;27;97543;-77
2022/02/23 03:12:01;;;;;;;1999.90;999.90;;;;;;;1.29;57.28;101318.34;5020047;28;98810;-76
2022/02/23 03:14:30;;;;;;;1999.90;999.90;;;;;;;1.30;57.28;101328.03;5019787;28;97798;-73
2022/02/23 03:16:58;;;;;;;1999.90;999.90;;;;;;;1.32;57.84;101325.50;5021481;27;96820;-76
2022/02/23 03:19:26;;;;;;;1999.90;999.90;;;;;;;1.30;57.84;101341.13;5028269;28;97152;-73
2022/02/23 03:21:53;;;;;;;1999.90;999.90;;;;;;;1.33;57.30;101348.28;5029352;28;97945;-74
2022/02/23 03:24:21;;;;;;;1999.90;999.90;;;;;;;1.31;57.65;101350.81;5021410;28;97744;-75
2022/02/23 03:26:54;;;;;;;1999.90;999.90;;;;;;;1.31;57.75;101356.06;5020190;28;97594;-74
2022/02/23 03:29:22;;;;;;;1999.90;999.90;;;;;;;1.32;57.68;101354.34;5019861;27;99070;-73
2022/02/23 03:31:51;;;;;;;1999.90;999.90;;;;;;;1.27;57.63;101342.66;5036256;27;99152;-74
2022/02/23 03:34:18;;;;;;;1999.90;999.90;;;;;;;1.25;57.90;101355.66;5019369;27;98673;-76
2022/02/23 03:36:46;;;;;;;1999.90;999.90;;;;;;;1.25;57.94;101354.75;5018361;27;97438;-75
2022/02/23 03:39:14;;;;;;;1999.90;999.90;;;;;;;1.25;58.16;101374.00;5002822;28;97035;-74
2022/02/23 03:41:42;;;;;;;1999.90;999.90;;;;;;;1.23;58.03;101369.47;5020279;28;99548;-76
2022/02/23 03:44:09;;;;;;;1999.90;999.90;;;;;;;1.22;57.19;101371.16;5021320;27;97694;-76
2022/02/23 03:46:38;;;;;;;1999.90;999.90;;;;;;;1.23;57.78;101375.63;5019765;28;97541;-73
2022/02/23 03:49:07;;;;;;;1999.90;999.90;;;;;;;1.19;58.01;101387.59;5003951;28;97695;-75
2022/02/23 03:51:39;;;;;;;1999.90;999.90;;;;;;;1.19;57.35;101395.47;5022321;28;97700;-75
2022/02/23 03:54:07;;;;;;;1999.90;999.90;;;;;;;1.17;57.83;101394.47;5019487;28;97247;-74
2022/02/23 03:56:42;;;;;;;1999.90;999.90;;;;;;;1.16;57.58;101407.44;5019890;27;97664;-74
2022/02/23 03:59:11;;;;;;;1999.90;999.90;;;;;;;1.12;57.99;101413.28;5015148;28;97492;-74
2022/02/23 04:01:42;;;;;;;1999.90;999.90;;;;;;;1.10;58.52;101414.91;5016817;28;100120;-75
2022/02/23 04:04:11;;;;;;;1999.90;999.90;;;;;;;1.10;58.33;101425.38;5016698;28;100860;-73
2022/02/23 04:06:40;;;;;;;1999.90;999.90;;;;;;;1.10;58.01;101428.88;5018251;28;96994;-74
2022/02/23 04:09:08;;;;;;;1999.90;999.90;;;;;;;1.08;57.66;101432.22;5019801;28;99927;-73
2022/02/23 04:11:37;;;;;;;1999.90;999.90;;;;;;;1.03;57.85;101438.88;5022976;27;97630;-74
2022/02/23 04:14:05;;;;;;;1999.90;999.90;;;;;;;1.02;57.90;101443.19;5024873;27;96733;-76
2022/02/23 04:16:33;;;;;;;1999.90;999.90;;;;;;;0.99;57.94;101450.84;5023145;27;98916;-75
2022/02/23 04:19:01;;;;;;;1999.90;999.90;;;;;;;0.97;57.93;101449.81;5024858;28;96919;-73
2022/02/23 04:21:30;;;;;;;1999.90;999.90;;;;;;;0.97;57.79;101470.78;5023572;28;98211;-74
2022/02/23 04:23:58;;;;;;;1999.90;999.90;;;;;;;0.97;58.29;101457.69;5024186;27;99633;-74
2022/02/23 04:26:26;;;;;;;1999.90;999.90;;;;;;;0.97;57.34;101459.38;5021917;28;96754;-75
2022/02/23 04:28:54;;;;;;;1999.90;999.90;;;;;;;1.00;57.96;101475.31;5039128;27;97160;-74
2022/02/23 04:31:24;;;;;;;1999.90;999.90;;;;;;;0.99;57.92;101478.75;5024298;27;98339;-74
2022/02/23 04:33:51;;;;;;;1999.90;999.90;;;;;;;1.00;58.03;101484.09;5022969;28;98496;-73
2022/02/23 04:36:19;;;;;;;1999.90;999.90;;;;;;;1.02;57.67;101492.06;5022162;27;96943;-73
2022/02/23 04:38:48;;;;;;;1999.90;999.90;;;;;;;1.02;58.21;101492.06;5023376;28;98043;-73
2022/02/23 04:41:16;;;;;;;1999.90;999.90;;;;;;;1.06;57.98;101501.97;5022392;28;98217;-73
2022/02/23 04:43:44;;;;;;;1999.90;999.90;;;;;;;1.05;57.99;101502.78;5020250;28;98142;-74
2022/02/23 04:46:12;;;;;;;1999.90;999.90;;;;;;;1.02;58.03;101502.53;5023314;27;97054;-73
2022/02/23 04:48:42;;;;;;;1999.90;999.90;;;;;;;1.02;57.91;101498.22;5022958;28;97514;-75
2022/02/23 04:51:09;;;;;;;1999.90;999.90;;;;;;;1.06;58.02;101496.72;5023503;28;99349;-75
2022/02/23 04:53:37;;;;;;;1999.90;999.90;;;;;;;1.06;57.60;101507.19;5022613;28;99412;-74
2022/02/23 04:56:07;;;;;;;1999.90;999.90;;;;;;;1.01;58.03;101500.72;5023263;28;97201;-75
2022/02/23 04:58:35;;;;;;;1999.90;999.90;;;;;;;1.02;57.79;101505.16;5022970;28;97002;-74
2022/02/23 05:01:03;;;;;;;1999.90;999.90;;;;;;;1.04;57.95;101528.06;5037444;27;97199;-73
2022/02/23 05:03:31;;;;;;;1999.90;999.90;;;;;;;1.04;57.87;101527.16;5020494;27;98635;-75
2022/02/23 05:05:59;;;;;;;1999.90;999.90;;;;;;;1.07;57.38;101535.22;5020363;28;97207;-72
2022/02/23 05:08:28;;;;;;;1999.90;999.90;;;;;;;1.05;57.68;101519.38;5021449;28;99025;-72
2022/02/23 05:10:57;;;;;;;1999.90;999.90;;;;;;;1.05;57.34;101523.75;5038934;27;98925;-74
2022/02/23 05:13:26;;;;;;;1999.90;999.90;;;;;;;1.06;57.16;101544.81;5022329;27;99382;-75
2022/02/23 05:15:56;;;;;;;1999.90;999.90;;;;;;;1.04;57.66;101541.16;5021113;28;96880;-73
2022/02/23 05:18:24;;;;;;;1999.90;999.90;;;;;;;1.00;57.90;101540.81;5022552;28;97494;-73
2022/02/23 05:20:51;;;;;;;1999.90;999.90;;;;;;;1.00;57.29;101546.06;5019620;28;97691;-74
2022/02/23 05:23:22;;;;;;;1999.90;999.90;;;;;;;0.97;57.74;101540.63;5020821;27;99454;-75
2022/02/23 05:25:50;;;;;;;1999.90;999.90;;;;;;;0.91;57.79;101556.81;5020693;28;97388;-73
2022/02/23 05:28:18;;;;;;;1999.90;999.90;;;;;;;0.90;57.57;101560.25;5021343;28;97452;-72
2022/02/23 05:30:47;;;;;;;1999.90;999.90;;;;;;;0.86;57.95;101562.50;5019611;28;97871;-75
2022/02/23 05:33:15;;;;;;;1999.90;999.90;;;;;;;0.87;57.88;101575.72;5021025;28;97630;-75
2022/02/23 05:35:44;;;;;;;1999.90;999.90;;;;;;;0.86;57.96;101583.47;5021126;28;97935;-76
2022/02/23 05:38:12;;;;;;;1999.90;999.90;;;;;;;0.86;57.54;101588.72;5020204;28;98281;-73
2022/02/23 05:40:40;;;;;;;1999.90;999.90;;;;;;;0.86;57.48;101602.72;5021918;28;98428;-74
2022/02/23 05:43:08;;;;;;;1999.90;999.90;;;;;;;0.87;57.58;101596.69;5020112;27;100643;-78
2022/02/23 05:45:36;;;;;;;1999.90;999.90;;;;;;;0.87;57.35;101616.72;5019069;28;97683;-75
2022/02/23 05:48:05;;;;;;;1999.90;999.90;;;;;;;0.85;57.63;101613.09;5020933;27;97692;-73
2022/02/23 05:50:33;;;;;;;1999.90;999.90;;;;;;;0.85;57.42;101621.84;5019201;28;98376;-74
2022/02/23 05:53:01;;;;;;;1999.90;999.90;;;;;;;0.86;57.78;101631.56;5014076;27;100916;-74
2022/02/23 05:55:29;;;;;;;1999.90;999.90;;;;;;;0.87;57.35;101635.06;5019734;28;97690;-75
2022/02/23 05:57:56;;;;;;;1999.90;999.90;;;;;;;0.84;57.75;101630.53;5020427;28;97499;-73
2022/02/23 06:00:24;;;;;;;1999.90;999.90;;;;;;;0.86;57.50;101643.72;5011781;28;97684;-75
2022/02/23 06:02:52;;;;;;;1999.90;999.90;;;;;;;0.90;57.76;101654.56;5012026;28;100069;-75
2022/02/23 06:05:21;;;;;;;1999.90;999.90;;;;;;;0.90;57.44;101654.56;5015711;28;97198;-74
2022/02/23 06:07:49;;;;;;;1999.90;999.90;;;;;;;0.87;57.06;101659.56;5018243;28;97698;-73
2022/02/23 06:10:16;;;;;;;1999.90;999.90;;;;;;;0.84;57.56;101676.75;5018256;28;98026;-71
2022/02/23 06:12:44;;;;;;;1999.90;999.90;;;;;;;0.86;57.85;101667.31;5019689;28;98584;-74
2022/02/23 06:15:12;;;;;;;1999.90;999.90;;;;;;;0.86;57.38;101677.78;5007330;28;97433;-74
2022/02/23 06:17:40;;;;;;;1999.90;999.90;;;;;;;0.87;57.59;101684.84;5007009;28;97189;-73
2022/02/23 06:20:08;;;;;;;1999.90;999.90;;;;;;;0.85;57.71;101681.22;5024956;28;98888;-72
2022/02/23 06:22:37;;;;;;;1999.90;999.90;;;;;;;0.83;57.10;101694.19;5024316;28;100596;-73
2022/02/23 06:25:06;;;;;;;1999.90;999.90;;;;;;;0.84;57.61;101701.25;5026371;27;97453;-73
2022/02/23 06:27:34;;;;;;;1999.90;999.90;;;;;;;0.79;57.84;101701.72;5025157;28;97570;-75
2022/02/23 06:30:02;;;;;;;1999.90;999.90;;;;;;;0.79;57.60;101707.88;5022721;28;99675;-73
2022/02/23 06:32:30;;;;;;;1999.90;999.90;;;;;;;0.82;57.67;101710.72;5022801;27;97850;-74
2022/02/23 06:34:58;;;;;;;1999.90;999.90;;;;;;;0.81;57.52;101726.31;5023079;28;97353;-74
2022/02/23 06:37:25;;;;;;;1999.90;999.90;;;;;;;0.83;57.26;101720.38;5034427;27;97246;-75
2022/02/23 06:39:55;;;;;;;1999.90;999.90;;;;;;;0.83;57.34;101725.63;5022330;28;99397;-74
2022/02/23 06:42:24;;;;;;;1999.90;999.90;;;;;;;0.83;57.29;101729.97;5019187;28;97697;-75
2022/02/23 06:44:52;;;;;;;1999.90;999.90;;;;;;;0.82;57.56;101731.66;5016856;27;97097;-76
2022/02/23 06:47:20;;;;;;;1999.90;999.90;;;;;;;0.82;57.56;101739.53;5019427;28;100565;-74
2022/02/23 06:49:48;;;;;;;1999.90;999.90;;;;;;;0.83;57.59;101756.16;5022108;27;97063;-74
2022/02/23 06:52:18;;;;;;;1999.90;999.90;;;;;;;0.83;57.46;101750.94;5021999;27;99086;-76
2022/02/23 06:54:45;;;;;;;1999.90;999.90;;;;;;;0.81;57.61;101753.41;5019962;27;96867;-77
2022/02/23 06:57:15;;;;;;;1999.90;999.90;;;;;;;0.82;57.78;101767.44;5020454;28;97122;-77
2022/02/23 06:59:43;;;;;;;1999.90;999.90;;;;;;;0.75;57.81;101771.31;5019411;28;99453;-78
2022/02/23 07:02:11;;;;;;;1999.90;999.90;;;;;;;0.75;57.48;101768.69;5022292;28;99672;-75
2022/02/23 07:04:38;;;;;;;1999.90;999.90;;;;;;;0.73;57.69;101783.38;5014083;27;97374;-74
2022/02/23 07:07:06;;;;;;;1999.90;999.90;;;;;;;0.77;57.79;101772.34;5021619;28;96860;-75
2022/02/23 07:09:34;;;;;;;1999.90;999.90;;;;;;;0.81;57.67;101787.47;5023245;28;98841;-75
2022/02/23 07:12:05;;;;;;;1999.90;999.90;;;;;;;0.78;57.45;101799.41;5024631;28;98519;-74
2022/02/23 07:14:35;;;;;;;1999.90;999.90;;;;;;;0.77;57.69;101789.75;5024151;28;97501;-75
2022/02/23 07:17:03;;;;;;;1999.90;999.90;;;;;;;0.79;57.49;101801.25;5022711;28;97122;-75
2022/02/23 07:19:34;;;;;;;1999.90;999.90;;;;;;;0.80;57.58;101805.69;5006848;28;99264;-75
2022/02/23 07:22:02;;;;;;;1999.90;999.90;;;;;;;0.78;57.11;101816.06;5020048;28;97889;-77
2022/02/23 07:24:32;;;;;;;1999.90;999.90;;;;;;;0.78;57.83;101821.31;5024528;28;97423;-75
2022/02/23 07:27:00;;;;;;;1999.90;999.90;;;;;;;0.83;57.35;101821.66;5025141;28;96831;-75
2022/02/23 07:29:28;;;;;;;1999.90;999.90;;;;;;;0.82;58.01;101825.97;5024746;28;98969;-75
2022/02/23 07:31:57;;;;;;;1999.90;999.90;;;;;;;0.81;57.56;101831.13;5024178;28;99230;-75
2022/02/23 07:34:24;;;;;;;1999.90;999.90;;;;;;;0.83;57.46;101825.19;5026268;28;97215;-77
2022/02/23 07:36:52;;;;;;;1999.90;999.90;;;;;;;0.85;57.82;101825.31;5025351;27;97571;-76
2022/02/23 07:39:20;;;;;;;1999.90;999.90;;;;;;;0.82;57.91;101828.59;5023809;28;100562;-75
2022/02/23 07:41:48;;;;;;;1999.90;999.90;;;;;;;0.86;57.96;101835.91;5023106;28;97725;-76
2022/02/23 07:44:35;;;;;;;1999.90;999.90;;;;;;;0.89;57.44;101841.38;5023990;28;96906;-76
2022/02/23 07:47:05;;;;;;;1999.90;999.90;;;;;;;0.88;57.81;101844.81;5023794;27;97831;-73
2022/02/23 07:49:49;;;;;;;1999.90;999.90;;;;;;;0.89;57.55;101844.00;5023998;28;99344;-75
2022/02/23 07:52:17;;;;;;;1999.90;999.90;;;;;;;0.98;57.48;101846.38;5020241;28;99268;-75
2022/02/23 07:54:46;;;;;;;1999.90;999.90;;;;;;;0.98;57.80;101855.19;5022039;28;96731;-75
2022/02/23 07:57:14;;;;;;;1999.90;999.90;;;;;;;1.00;57.61;101860.53;5005032;28;97230;-75
2022/02/23 07:59:41;;;;;;;1999.90;999.90;;;;;;;1.04;57.60;101863.50;5024651;28;99135;-73
2022/02/23 08:02:10;;;;;;;1999.90;999.90;;;;;;;1.05;56.99;101867.06;5021009;28;100770;-74
2022/02/23 08:04:38;;;;;;;1999.90;999.90;;;;;;;1.02;57.35;101870.34;5024470;28;96736;-75
2022/02/23 08:07:06;;;;;;;1999.90;999.90;;;;;;;1.07;57.71;101878.53;5022792;28;96771;-75
2022/02/23 08:09:34;;;;;;;1999.90;999.90;;;;;;;1.08;57.83;101883.00;5024395;28;97518;-75
2022/02/23 08:12:03;;;;;;;1999.90;999.90;;;;;;;1.08;57.14;101873.44;5020193;27;97114;-75
2022/02/23 08:14:30;;;;;;;1999.90;999.90;;;;;;;1.12;57.43;101874.59;5024121;28;97896;-74
2022/02/23 08:19:45;;;;;;;1999.90;999.90;;;;;;;1.15;57.18;101885.28;5021013;28;97358;-74
2022/02/23 08:22:14;;;;;;;1999.90;999.90;;;;;;;1.20;57.20;101878.69;5004782;28;100299;-76
2022/02/23 08:24:44;;;;;;;1999.90;999.90;;;;;;;1.20;57.34;101878.69;5024117;28;97875;-74
2022/02/23 08:27:18;;;;;;;1999.90;999.90;;;;;;;1.21;57.11;101880.53;5024165;28;97434;-74
2022/02/23 08:29:46;;;;;;;1999.90;999.90;;;;;;;1.22;56.85;101874.47;5025107;28;97962;-73
2022/02/23 08:32:16;;;;;;;1999.90;999.90;;;;;;;1.26;57.47;101884.41;5021765;28;99134;-74
2022/02/23 08:34:46;;;;;;;1999.90;999.90;;;;;;;1.30;56.66;101881.22;5021684;28;96790;-74
2022/02/23 08:37:15;;;;;;;1999.90;999.90;;;;;;;1.35;56.54;101889.41;5024132;28;97595;-74
2022/02/23 08:39:44;;;;;;;1999.90;999.90;;;;;;;1.37;57.25;101888.75;5022120;28;97741;-75
2022/02/23 08:42:13;;;;;;;1999.90;999.90;;;;;;;1.46;56.73;101897.31;5020102;28;100349;-76
2022/02/23 08:44:42;;;;;;;1999.90;999.90;;;;;;;1.49;56.62;101881.78;5023957;27;97651;-73
2022/02/23 08:47:10;;;;;;;1999.90;999.90;;;;;;;1.51;56.48;101895.94;5024196;27;96839;-76
2022/02/23 08:49:37;;;;;;;1999.90;999.90;;;;;;;1.54;56.91;101877.81;5024266;27;98348;-77
2022/02/23 08:52:08;;;;;;;1999.90;999.90;;;;;;;1.57;56.46;101880.66;5023240;28;99209;-77
2022/02/23 08:54:37;;;;;;;1999.90;999.90;;;;;;;1.60;55.82;101880.88;5023967;28;97789;-74
2022/02/23 08:57:05;;;;;;;1999.90;999.90;;;;;;;1.65;56.19;101886.47;5023277;27;97054;-76
2022/02/23 08:59:34;;;;;;;1999.90;999.90;;;;;;;1.66;56.65;101885.66;5027109;28;98858;-75
2022/02/23 09:02:04;;;;;;;1999.90;999.90;;;;;;;1.71;55.93;101892.16;5025855;28;99586;-75
2022/02/23 09:04:31;;;;;;;1999.90;999.90;;;;;;;1.71;56.40;101887.84;5011004;28;97823;-74
2022/02/23 09:07:02;;;;;;;1999.90;999.90;;;;;;;1.73;56.06;101887.94;5024718;28;96809;-75
2022/02/23 09:09:31;;;;;;;1999.90;999.90;;;;;;;1.75;55.50;101892.53;5026131;27;100885;-74
2022/02/23 09:12:02;;;;;;;1999.90;999.90;;;;;;;1.77;56.13;101896.16;5025738;27;101094;-75
2022/02/23 09:14:30;;;;;;;1999.90;999.90;;;;;;;1.78;56.27;101913.72;5026834;27;97421;-73
2022/02/23 09:16:58;;;;;;;1999.90;999.90;;;;;;;1.77;55.16;101893.53;5027024;27;96741;-73
2022/02/23 09:19:26;;;;;;;1999.90;999.90;;;;;;;1.75;55.22;101897.75;5009016;28;100480;-71
2022/02/23 09:21:53;;;;;;;1999.90;999.90;;;;;;;1.73;55.68;101894.13;5025167;27;100375;-74
2022/02/23 09:24:23;;;;;;;1999.90;999.90;;;;;;;1.74;55.38;101902.91;5026444;28;97288;-74
2022/02/23 09:26:52;;;;;;;1999.90;999.90;;;;;;;1.75;55.31;101912.59;5024546;28;96847;-73
2022/02/23 09:29:20;;;;;;;1999.90;999.90;;;;;;;1.75;55.33;101908.25;5026071;28;97659;-74
2022/02/23 09:31:47;;;;;;;1999.90;999.90;;;;;;;1.76;55.19;101907.44;5024460;28;97777;-75
2022/02/23 09:34:18;;;;;;;1999.90;999.90;;;;;;;1.75;55.40;101913.50;5026938;28;96883;-74
2022/02/23 09:36:45;;;;;;;1999.90;999.90;;;;;;;1.75;55.11;101905.63;5026099;27;97348;-71
2022/02/23 09:39:13;;;;;;;1999.90;999.90;;;;;;;1.78;54.88;101918.09;5025618;27;97912;-75
2022/02/23 09:41:41;;;;;;;1999.90;999.90;;;;;;;1.76;54.79;101915.31;5025801;28;97155;-72
2022/02/23 09:44:10;;;;;;;1999.90;999.90;;;;;;;1.79;54.71;101918.19;5025416;27;97429;-71
2022/02/23 09:46:38;;;;;;;1999.90;999.90;;;;;;;1.83;55.18;101929.81;5024773;28;96792;-74
2022/02/23 09:49:06;;;;;;;1999.90;999.90;;;;;;;1.86;55.15;101923.09;5025355;28;97895;-73
2022/02/23 09:51:34;;;;;;;1999.90;999.90;;;;;;;1.90;54.28;101927.78;5023329;28;97697;-75
2022/02/23 09:54:02;;;;;;;1999.90;999.90;;;;;;;1.92;54.79;101926.19;5022271;28;97715;-72
2022/02/23 09:56:32;;;;;;;1999.90;999.90;;;;;;;1.91;54.30;101928.66;5024397;27;98836;-72
2022/02/23 09:59:00;;;;;;;1999.90;999.90;;;;;;;1.92;54.57;101927.88;5024546;28;99049;-73
2022/02/23 10:01:30;;;;;;;1999.90;999.90;;;;;;;1.91;54.61;101926.97;5023482;28;100783;-75
2022/02/23 10:03:57;;;;;;;1999.90;999.90;;;;;;;1.95;54.12;101925.47;5006338;28;97486;-73
2022/02/23 10:06:28;;;;;;;1999.90;999.90;;;;;;;1.97;54.59;101934.38;5025653;28;98047;-72
2022/02/23 10:09:00;;;;;;;1999.90;999.90;;;;;;;1.95;54.00;101943.84;5024765;28;99269;-74
2022/02/23 10:11:29;;;;;;;1999.90;999.90;;;;;;;2.00;54.33;101932.88;5023354;28;100745;-73
2022/02/23 10:13:58;;;;;;;1999.90;999.90;;;;;;;2.07;54.33;101939.53;5025689;27;97524;-74
2022/02/23 10:16:26;;;;;;;1999.90;999.90;;;;;;;2.15;53.92;101941.94;5024651;28;97623;-73
2022/02/23 10:19:12;;;;;;;1999.90;999.90;;;;;;;2.24;53.81;101951.28;5021796;28;97853;-74
2022/02/23 10:21:52;;;;;;;1999.90;999.90;;;;;;;2.28;53.40;101942.81;5008110;28;97785;-71
2022/02/23 10:24:26;;;;;;;1999.90;999.90;;;;;;;2.36;53.90;101954.81;5024848;28;96845;-75
2022/02/23 10:26:57;;;;;;;1999.90;999.90;;;;;;;2.41;53.66;101949.06;5023848;28;97446;-73
2022/02/23 10:29:29;;;;;;;1999.90;999.90;;;;;;;2.49;53.19;101955.78;5007838;28;99488;-75
2022/02/23 10:31:57;;;;;;;1999.90;999.90;;;;;;;2.59;53.59;101965.25;5024028;28;98653;-73
2022/02/23 10:34:26;;;;;;;1999.90;999.90;;;;;;;2.72;53.61;101960.06;5025595;27;97141;-73
2022/02/23 10:37:05;;;;;;;1999.90;999.90;;;;;;;2.75;53.19;101942.78;5025740;28;97873;-74
2022/02/23 10:39:38;;;;;;;1999.90;999.90;;;;;;;2.81;52.95;101952.81;5023329;28;98664;-74
2022/02/23 10:42:07;;;;;;;1999.90;999.90;;;;;;;2.89;53.35;101967.44;5021370;28;97458;-73
2022/02/23 10:44:35;;;;;;;1999.90;999.90;;;;;;;2.89;53.20;101963.06;5022895;28;96929;-74
2022/02/23 10:47:07;;;;;;;1999.90;999.90;;;;;;;2.86;52.22;101964.56;5024054;28;97482;-73
2022/02/23 10:49:36;;;;;;;1999.90;999.90;;;;;;;2.87;52.85;101958.53;5024299;28;100867;-74
2022/02/23 10:52:09;;;;;;;1999.90;999.90;;;;;;;2.83;52.36;101967.91;5024194;27;99700;-74
2022/02/23 10:54:37;;;;;;;1999.90;999.90;;;;;;;2.85;53.15;101975.91;5040812;27;97760;-72
2022/02/23 10:57:20;;;;;;;1999.90;999.90;;;;;;;2.79;50.88;101973.75;5006869;28;97081;-74
2022/02/23 10:59:52;;;;;;;1999.90;999.90;;;;;;;2.83;52.82;101964.38;5023572;27;97608;-73
2022/02/23 11:02:22;;;;;;;1999.90;999.90;;;;;;;2.83;52.84;101980.13;5005971;28;101397;-73
2022/02/23 11:04:51;;;;;;;1999.90;999.90;;;;;;;2.83;52.60;101978.44;5023380;28;97392;-74